Portage, Indiana
Current Conditions -  °F | °C
As of 11:45 AM on Monday 24 Nov 2014 (Local Time) from KGYY Reporting Station
Light Snow Light Snow  
Wind Chill: 20°   Ceiling: 1300
Heat Index: 34°   Visibility: 1.5mi
Dew Point: 32°   Wind: 29mph
Humidity: 93%   Direction: 250°WSW
Pressure: 29.36"   Gusts: 46mph
Location:  41.6°N, 87.17°W
Report Text: KGYY 241745Z 25025G40KT 1 1/2SM -SN OVC013 01/00 A2936
Loading
Personal Weather Stations






























Interactive Weather Map New forecast layout! Learn more

10-Day Weather Forecast

Advertisements
Track Severe Weather on mobile